createdAt,value
2018-11-07T00:04:04.445Z,99568.76
2018-11-07T00:09:08.772Z,99566.56
2018-11-07T00:14:12.310Z,99570.11
2018-11-07T00:19:15.813Z,99562.02
2018-11-07T00:24:19.279Z,99563.37
2018-11-07T00:29:22.714Z,99573.66
2018-11-07T00:34:26.315Z,99567.77
2018-11-07T00:39:29.788Z,99559.81
2018-11-07T00:44:33.310Z,99557.13
2018-11-07T00:49:36.914Z,99551.02
2018-11-07T00:54:40.471Z,99548.82
2018-11-07T00:59:43.941Z,99555.42
2018-11-07T01:04:47.442Z,99554.56
2018-11-07T01:09:50.914Z,99563.25
2018-11-07T01:14:54.394Z,99561.89
2018-11-07T01:19:57.910Z,99560.68
2018-11-07T01:25:01.356Z,99558.36
2018-11-07T01:30:06.075Z,99562.67
2018-11-07T01:35:09.697Z,99567.31
2018-11-07T01:40:14.298Z,99563.68
2018-11-07T01:45:17.747Z,99571.15
2018-11-07T01:50:21.197Z,99575.81
2018-11-07T01:55:24.663Z,99573.85
2018-11-07T02:00:28.095Z,99561.97
2018-11-07T02:05:31.557Z,99555.01
2018-11-07T02:10:34.987Z,99557.09
2018-11-07T02:15:38.472Z,99558.20
2018-11-07T02:20:41.944Z,99552.46
2018-11-07T02:25:45.427Z,99556.60
2018-11-07T02:30:48.877Z,99553.69
2018-11-07T02:35:52.395Z,99555.66
2018-11-07T02:40:55.859Z,99558.09
2018-11-07T02:45:59.293Z,99544.90
2018-11-07T02:51:02.788Z,99544.90
2018-11-07T02:56:06.233Z,99551.23
2018-11-07T03:01:09.726Z,99544.28
2018-11-07T03:06:13.167Z,99541.23
2018-11-07T03:11:16.614Z,99550.66
2018-11-07T03:16:20.066Z,99554.43
2018-11-07T03:21:23.640Z,99558.11
2018-11-07T03:26:27.109Z,99568.52
2018-11-07T03:31:30.593Z,99565.10
2018-11-07T03:36:34.055Z,99566.05
2018-11-07T03:41:37.838Z,99566.19
2018-11-07T03:46:41.300Z,99562.28
2018-11-07T03:51:44.837Z,99562.41
2018-11-07T03:56:48.337Z,99565.20
2018-11-07T04:01:51.821Z,99573.28
2018-11-07T04:06:55.305Z,99571.21
2018-11-07T04:11:58.825Z,99573.19
2018-11-07T04:17:02.293Z,99577.69
2018-11-07T04:22:05.779Z,99575.13
2018-11-07T04:27:09.262Z,99575.13
2018-11-07T04:32:12.711Z,99578.89
2018-11-07T04:37:16.248Z,99580.73
2018-11-07T04:42:19.729Z,99582.67
2018-11-07T04:47:23.282Z,99587.82
2018-11-07T04:52:26.823Z,99589.40
2018-11-07T04:57:30.310Z,99593.56
2018-11-07T05:02:34.662Z,99595.27
2018-11-07T05:07:38.115Z,99595.05
2018-11-07T05:12:41.543Z,99605.80
2018-11-07T05:17:45.001Z,99599.67
2018-11-07T05:22:48.467Z,99598.72
2018-11-07T05:27:51.947Z,99600.66
2018-11-07T05:32:55.414Z,99601.64
2018-11-07T05:37:58.871Z,99615.09
2018-11-07T05:43:02.327Z,99617.55
2018-11-07T05:48:05.794Z,99627.42
2018-11-07T05:53:09.247Z,99631.09
2018-11-07T05:58:12.746Z,99631.36
2018-11-07T06:09:02.379Z,99627.42
2018-11-07T06:14:12.652Z,99630.11
2018-11-07T06:19:16.158Z,99632.93
2018-11-07T06:24:19.626Z,99644.67
2018-11-07T06:29:23.231Z,99646.14
2018-11-07T06:34:26.739Z,99652.02
2018-11-07T06:39:30.188Z,99650.18
2018-11-07T06:44:33.706Z,99653.85
2018-11-07T06:49:37.155Z,99660.19
2018-11-07T06:54:40.652Z,99664.71
2018-11-07T06:59:44.131Z,99668.75
2018-11-07T07:04:47.665Z,99672.78
2018-11-07T07:09:51.222Z,99662.64
2018-11-07T07:14:54.702Z,99658.60
2018-11-07T07:19:58.222Z,99666.19
2018-11-07T07:25:01.738Z,99671.56
2018-11-07T07:30:08.286Z,99670.58
2018-11-07T07:35:12.127Z,99673.53
2018-11-07T07:40:16.587Z,99683.67
2018-11-07T07:45:20.683Z,99676.09
2018-11-07T07:50:24.135Z,99687.70
2018-11-07T07:55:27.608Z,99687.34
2018-11-07T08:00:31.069Z,99688.67
2018-11-07T08:05:34.535Z,99698.92
2018-11-07T08:10:38.011Z,99700.03
2018-11-07T08:15:41.458Z,99701.73
2018-11-07T08:20:44.914Z,99714.33
2018-11-07T08:25:48.367Z,99710.78
2018-11-07T08:30:51.898Z,99712.22
2018-11-07T08:35:55.310Z,99716.75
2018-11-07T08:40:58.779Z,99707.33
2018-11-07T08:46:02.230Z,99706.12
2018-11-07T08:51:05.684Z,99699.75
2018-11-07T08:56:09.160Z,99705.63
2018-11-07T09:01:12.681Z,99710.15
2018-11-07T09:06:16.070Z,99722.23
2018-11-07T09:11:19.528Z,99725.66
2018-11-07T09:16:22.997Z,99723.74
2018-11-07T09:21:26.462Z,99730.44
2018-11-07T09:26:29.907Z,99745.48
2018-11-07T09:31:33.350Z,99745.02
2018-11-07T09:36:36.827Z,99746.25
2018-11-07T09:41:40.315Z,99751.31
2018-11-07T09:46:44.504Z,99750.84
2018-11-07T09:51:49.274Z,99740.91
2018-11-07T09:56:53.588Z,99741.39
2018-11-07T10:01:57.940Z,99749.10
2018-11-07T10:07:02.483Z,99762.45
2018-11-07T10:12:06.800Z,99755.41
2018-11-07T10:17:10.274Z,99757.09
2018-11-07T10:22:13.711Z,99753.70
2018-11-07T10:27:17.324Z,99761.20
2018-11-07T10:32:20.700Z,99745.12
2018-11-07T10:37:32.258Z,99746.64
2018-11-07T10:42:27.756Z,99747.59
2018-11-07T10:47:31.230Z,99747.48
2018-11-07T10:52:34.713Z,99749.30
2018-11-07T10:57:39.228Z,99749.91
2018-11-07T11:02:47.409Z,99750.67
2018-11-07T11:07:51.826Z,99760.23
2018-11-07T11:12:56.224Z,99759.84
2018-11-07T11:18:00.555Z,99767.17
2018-11-07T11:23:04.883Z,99767.91
2018-11-07T11:28:09.626Z,99761.47
2018-11-07T11:33:13.079Z,99751.05
2018-11-07T11:38:16.540Z,99758.09
2018-11-07T11:43:20.031Z,99755.59
2018-11-07T11:48:23.458Z,99761.52
2018-11-07T11:53:26.932Z,99762.67
2018-11-07T11:58:30.372Z,99770.74
2018-11-07T12:03:33.839Z,99759.50
2018-11-07T12:08:37.308Z,99760.28
2018-11-07T12:13:41.020Z,99761.92
2018-11-07T12:18:44.454Z,99763.45
2018-11-07T12:23:47.925Z,99755.70
2018-11-07T12:28:51.373Z,99755.48
2018-11-07T12:33:54.864Z,99738.38
2018-11-07T12:38:58.310Z,99736.28
2018-11-07T12:44:01.777Z,99740.17
2018-11-07T12:49:05.400Z,99746.99
2018-11-07T12:54:08.859Z,99734.92
2018-11-07T12:59:12.368Z,99733.17
2018-11-07T13:04:15.849Z,99738.83
2018-11-07T13:09:19.297Z,99745.40
2018-11-07T13:14:22.746Z,99750.41
2018-11-07T13:19:26.231Z,99752.64
2018-11-07T13:24:29.767Z,99749.92
2018-11-07T13:29:33.195Z,99753.98
2018-11-07T13:34:36.644Z,99750.29
2018-11-07T13:39:40.108Z,99750.31
2018-11-07T13:44:43.545Z,99746.28
2018-11-07T13:49:47.016Z,99740.30
2018-11-07T13:54:50.455Z,99746.62
2018-11-07T13:59:53.933Z,99751.14
2018-11-07T14:04:57.496Z,99758.97
2018-11-07T14:10:00.957Z,99759.09
2018-11-07T14:15:05.240Z,99762.72
2018-11-07T14:20:08.770Z,99763.34
2018-11-07T14:25:12.746Z,99760.22
2018-11-07T14:30:17.485Z,99771.83
2018-11-07T14:35:21.304Z,99766.21
2018-11-07T14:40:24.787Z,99768.28
2018-11-07T14:45:28.312Z,99763.03
2018-11-07T14:50:31.761Z,99767.89
2018-11-07T14:55:35.209Z,99765.44
2018-11-07T15:00:38.700Z,99753.09
2018-11-07T15:05:42.279Z,99762.02
2018-11-07T15:10:45.652Z,99758.69
2018-11-07T15:15:49.113Z,99771.28
2018-11-07T15:20:52.543Z,99772.26
2018-11-07T15:25:56.726Z,99769.08
2018-11-07T15:31:00.256Z,99763.22
2018-11-07T15:36:03.810Z,99765.66
2018-11-07T15:41:07.278Z,99778.61
2018-11-07T15:46:11.146Z,99774.83
2018-11-07T15:51:15.799Z,99767.52
2018-11-07T15:56:19.234Z,99775.34
2018-11-07T16:01:22.759Z,99782.71
2018-11-07T16:06:26.914Z,99790.08
2018-11-07T16:11:30.532Z,99787.63
2018-11-07T16:16:34.067Z,99792.19
2018-11-07T16:21:37.525Z,99799.30
2018-11-07T16:26:41.058Z,99814.62
2018-11-07T16:31:44.524Z,99812.66
2018-11-07T16:36:48.558Z,99814.49
2018-11-07T16:41:52.174Z,99832.99
2018-11-07T16:46:55.529Z,99825.08
2018-11-07T16:51:58.974Z,99834.16
2018-11-07T16:57:02.615Z,99832.31
2018-11-07T17:02:06.427Z,99832.55
2018-11-07T17:07:11.500Z,99835.99
2018-11-07T17:12:15.123Z,99846.78
2018-11-07T17:17:18.723Z,99854.05
2018-11-07T17:22:22.330Z,99855.58
2018-11-07T17:27:25.774Z,99848.45
2018-11-07T17:32:29.357Z,99843.80
2018-11-07T17:37:33.156Z,99845.03
2018-11-07T17:42:37.583Z,99839.63
2018-11-07T17:47:41.880Z,99846.64
2018-11-07T17:52:45.441Z,99839.13
2018-11-07T17:57:48.935Z,99849.43
2018-11-07T18:02:53.333Z,99845.75
2018-11-07T18:07:57.007Z,99853.11
2018-11-07T18:13:00.457Z,99851.41
2018-11-07T18:18:03.951Z,99860.71
2018-11-07T18:23:07.414Z,99861.56
2018-11-07T18:28:10.963Z,99864.16
2018-11-07T18:33:14.450Z,99869.66
2018-11-07T18:38:18.172Z,99861.70
2018-11-07T18:43:22.023Z,99869.16
2018-11-07T18:48:26.454Z,99877.73
2018-11-07T18:53:29.963Z,99888.88
2018-11-07T18:58:33.450Z,99892.91
2018-11-07T19:03:36.982Z,99901.89
2018-11-07T19:08:40.706Z,99906.03
2018-11-07T19:13:44.210Z,99914.48
2018-11-07T19:18:47.916Z,99922.48
2018-11-07T19:23:51.419Z,99924.19
2018-11-07T19:28:54.994Z,99927.89
2018-11-07T19:33:58.478Z,99938.05
2018-11-07T19:39:01.976Z,99941.97
2018-11-07T19:44:05.602Z,99936.35
2018-11-07T19:49:09.052Z,99947.63
2018-11-07T19:54:12.543Z,99953.25
2018-11-07T19:59:17.586Z,99951.17
2018-11-07T20:04:21.166Z,99965.37
2018-11-07T20:09:24.647Z,99971.25
2018-11-07T20:14:28.095Z,99977.61
2018-11-07T20:19:31.747Z,99983.86
2018-11-07T20:24:35.208Z,99985.92
2018-11-07T20:29:38.679Z,99987.16
2018-11-07T20:34:42.146Z,99976.02
2018-11-07T20:39:45.597Z,99988.00
2018-11-07T20:44:49.163Z,99992.28
2018-11-07T20:49:52.647Z,99997.80
2018-11-07T20:54:56.168Z,100001.84
2018-11-07T20:59:59.641Z,100010.05
2018-11-07T21:05:03.423Z,100004.76
2018-11-07T21:10:09.430Z,100006.20
2018-11-07T21:15:14.815Z,100006.69
2018-11-07T21:20:18.412Z,100016.73
2018-11-07T21:25:21.955Z,100025.90
2018-11-07T21:30:25.564Z,100029.45
2018-11-07T21:35:29.100Z,100031.78
2018-11-07T21:40:32.950Z,100041.09
2018-11-07T21:45:36.767Z,100050.28
2018-11-07T21:50:40.600Z,100053.34
2018-11-07T21:55:44.112Z,100054.33
2018-11-07T22:00:48.048Z,100057.14
2018-11-07T22:05:51.902Z,100063.11
2018-11-07T22:10:55.534Z,100067.92
2018-11-07T22:15:58.990Z,100069.77
2018-11-07T22:21:02.604Z,100076.09
2018-11-07T22:26:06.310Z,100068.91
2018-11-07T22:31:09.967Z,100082.38
2018-11-07T22:36:13.750Z,100083.94
2018-11-07T22:41:17.521Z,100077.69
2018-11-07T22:46:21.313Z,100078.19
2018-11-07T22:51:24.767Z,100075.48
2018-11-07T22:56:28.218Z,100085.66
2018-11-07T23:01:36.940Z,100095.33
2018-11-07T23:06:40.693Z,100109.30
2018-11-07T23:11:45.113Z,100108.53
2018-11-07T23:16:48.582Z,100107.18
2018-11-07T23:21:52.030Z,100108.89
2018-11-07T23:26:55.471Z,100113.06
2018-11-07T23:31:58.925Z,100118.45
2018-11-07T23:37:02.366Z,100122.61
2018-11-07T23:42:05.861Z,100134.73
2018-11-07T23:47:09.367Z,100134.25
2018-11-07T23:52:16.978Z,100134.73
2018-11-07T23:57:20.479Z,100140.00
